createdAt,value
2017-02-19T00:00:31.800Z,2.7
2017-02-19T00:01:36.930Z,2.7
2017-02-19T00:02:43.019Z,2.7
2017-02-19T00:03:48.123Z,2.73
2017-02-19T00:04:54.218Z,2.71
2017-02-19T00:05:58.371Z,2.71
2017-02-19T00:07:04.468Z,2.71
2017-02-19T00:08:10.568Z,2.69
2017-02-19T00:09:16.680Z,2.71
2017-02-19T00:10:21.784Z,2.76
2017-02-19T00:11:27.872Z,2.66
2017-02-19T00:12:32.035Z,2.67
2017-02-19T00:13:37.136Z,2.71
2017-02-19T00:14:41.301Z,2.63
2017-02-19T00:15:46.432Z,2.67
2017-02-19T00:16:51.547Z,2.64
2017-02-19T00:17:56.678Z,2.67
2017-02-19T00:19:02.792Z,2.66
2017-02-19T00:20:08.873Z,2.59
2017-02-19T00:21:13.970Z,2.55
2017-02-19T00:22:19.127Z,2.63
2017-02-19T00:23:25.214Z,2.58
2017-02-19T00:24:30.336Z,2.66
2017-02-19T00:25:35.485Z,2.59
2017-02-19T00:26:41.569Z,2.56
2017-02-19T00:27:46.699Z,2.63
2017-02-19T00:28:51.823Z,2.61
2017-02-19T00:29:57.889Z,2.63
2017-02-19T00:31:02.047Z,2.58
2017-02-19T00:32:07.176Z,2.63
2017-02-19T00:33:13.275Z,2.61
2017-02-19T00:34:19.375Z,2.58
2017-02-19T00:35:23.538Z,2.58
2017-02-19T00:36:28.663Z,2.64
2017-02-19T00:37:34.761Z,2.59
2017-02-19T00:38:40.854Z,2.61
2017-02-19T00:39:45.980Z,2.55
2017-02-19T00:40:50.112Z,2.51
2017-02-19T00:41:55.229Z,2.44
2017-02-19T00:43:00.357Z,2.55
2017-02-19T00:44:06.447Z,2.59
2017-02-19T00:45:10.616Z,2.58
2017-02-19T00:46:16.724Z,2.53
2017-02-19T00:47:22.824Z,2.53
2017-02-19T00:48:27.942Z,2.46
2017-02-19T00:49:33.625Z,2.46
2017-02-19T00:50:38.771Z,2.56
2017-02-19T00:51:43.873Z,2.48
2017-02-19T00:52:48.988Z,2.52
2017-02-19T00:53:55.078Z,2.52
2017-02-19T00:55:00.196Z,2.53
2017-02-19T00:56:05.319Z,2.49
2017-02-19T00:57:11.414Z,2.52
2017-02-19T00:58:16.535Z,2.48
2017-02-19T00:59:22.625Z,2.53
2017-02-19T01:00:28.715Z,2.4
2017-02-19T01:01:33.863Z,2.41
2017-02-19T01:02:39.951Z,2.56
2017-02-19T01:03:45.074Z,2.51
2017-02-19T01:04:50.203Z,2.44
2017-02-19T01:05:54.361Z,2.4
2017-02-19T01:07:00.468Z,2.48
2017-02-19T01:08:05.598Z,2.45
2017-02-19T01:09:10.708Z,2.45
2017-02-19T01:10:15.840Z,2.4
2017-02-19T01:11:21.102Z,2.45
2017-02-19T01:12:26.261Z,2.45
2017-02-19T01:13:31.400Z,2.41
2017-02-19T01:14:37.466Z,2.45
2017-02-19T01:15:42.596Z,2.38
2017-02-19T01:16:48.694Z,2.44
2017-02-19T01:17:53.820Z,2.34
2017-02-19T01:18:59.900Z,2.37
2017-02-19T01:20:05.031Z,2.35
2017-02-19T01:21:11.119Z,2.46
2017-02-19T01:22:16.278Z,2.45
2017-02-19T01:23:21.426Z,2.31
2017-02-19T01:24:26.563Z,2.37
2017-02-19T01:25:32.654Z,2.35
2017-02-19T01:26:37.746Z,2.33
2017-02-19T01:27:43.861Z,2.34
2017-02-19T01:28:49.012Z,2.31
2017-02-19T01:29:54.131Z,2.34
2017-02-19T01:30:59.257Z,2.28
2017-02-19T01:32:05.355Z,2.34
2017-02-19T01:33:11.451Z,2.34
2017-02-19T01:34:17.532Z,2.44
2017-02-19T01:35:22.668Z,2.31
2017-02-19T01:36:28.757Z,2.37
2017-02-19T01:37:33.849Z,2.41
2017-02-19T01:38:39.942Z,2.35
2017-02-19T01:39:45.072Z,2.37
2017-02-19T01:40:50.201Z,2.31
2017-02-19T01:41:55.291Z,2.35
2017-02-19T01:43:00.407Z,2.33
2017-02-19T01:44:05.527Z,2.35
2017-02-19T01:45:10.666Z,2.33
2017-02-19T01:46:16.764Z,2.27
2017-02-19T01:47:20.921Z,2.26
2017-02-19T01:48:24.112Z,2.31
2017-02-19T01:49:29.238Z,2.33
2017-02-19T01:50:34.402Z,2.26
2017-02-19T01:51:40.491Z,2.37
2017-02-19T01:52:46.592Z,2.37
2017-02-19T01:53:50.748Z,2.44
2017-02-19T01:54:55.874Z,2.38
2017-02-19T01:56:01.011Z,2.38
2017-02-19T01:57:07.095Z,2.45
2017-02-19T01:58:12.226Z,2.38
2017-02-19T01:59:16.386Z,2.34
2017-02-19T02:00:20.537Z,2.34
2017-02-19T02:01:25.663Z,2.31
2017-02-19T02:02:30.765Z,2.3
2017-02-19T02:03:35.891Z,2.44
2017-02-19T02:04:40.044Z,2.4
2017-02-19T02:05:46.128Z,2.41
2017-02-19T02:06:52.218Z,2.38
2017-02-19T02:07:57.348Z,2.41
2017-02-19T02:09:02.454Z,2.41
2017-02-19T02:10:08.540Z,2.46
2017-02-19T02:11:13.658Z,2.4
2017-02-19T02:12:17.836Z,2.38
2017-02-19T02:13:23.934Z,2.37
2017-02-19T02:14:29.066Z,2.38
2017-02-19T02:15:33.187Z,2.45
2017-02-19T02:16:39.284Z,2.4
2017-02-19T02:17:45.375Z,2.48
2017-02-19T02:18:51.466Z,2.4
2017-02-19T02:19:56.601Z,2.37
2017-02-19T02:21:02.685Z,2.44
2017-02-19T02:22:07.823Z,2.4
2017-02-19T02:23:12.944Z,2.38
2017-02-19T02:24:18.075Z,2.45
2017-02-19T02:25:24.168Z,2.41
2017-02-19T02:26:30.258Z,2.37
2017-02-19T02:27:36.349Z,2.38
2017-02-19T02:28:41.470Z,2.41
2017-02-19T02:29:47.572Z,2.4
2017-02-19T02:30:52.693Z,2.28
2017-02-19T02:31:57.822Z,2.35
2017-02-19T02:33:02.950Z,2.35
2017-02-19T02:34:09.061Z,2.41
2017-02-19T02:35:14.218Z,2.37
2017-02-19T02:36:18.367Z,2.45
2017-02-19T02:37:24.463Z,2.4
2017-02-19T02:38:30.552Z,2.37
2017-02-19T02:39:35.682Z,2.41
2017-02-19T02:40:40.804Z,2.48
2017-02-19T02:41:46.890Z,2.46
2017-02-19T02:42:53.012Z,2.56
2017-02-19T02:43:58.137Z,2.55
2017-02-19T02:45:03.244Z,2.51
2017-02-19T02:46:08.369Z,2.58
2017-02-19T02:47:12.500Z,2.52
2017-02-19T02:48:18.591Z,2.59
2017-02-19T02:49:23.684Z,2.51
2017-02-19T02:50:29.782Z,2.58
2017-02-19T02:51:34.927Z,2.66
2017-02-19T02:52:39.040Z,2.63
2017-02-19T02:53:45.142Z,2.59
2017-02-19T02:54:51.246Z,2.74
2017-02-19T02:55:57.343Z,2.73
2017-02-19T02:57:02.482Z,2.69
2017-02-19T02:58:08.572Z,2.7
2017-02-19T02:59:13.697Z,2.7
2017-02-19T03:00:17.826Z,2.7
2017-02-19T03:01:22.947Z,2.71
2017-02-19T03:02:27.077Z,2.79
2017-02-19T03:03:33.173Z,2.77
2017-02-19T03:04:39.281Z,2.74
2017-02-19T03:05:43.444Z,2.81
2017-02-19T03:06:49.576Z,2.84
2017-02-19T03:07:55.639Z,2.81
2017-02-19T03:09:01.726Z,2.79
2017-02-19T03:10:06.873Z,2.85
2017-02-19T03:11:12.941Z,2.91
2017-02-19T03:12:19.040Z,2.84
2017-02-19T03:13:24.165Z,2.92
2017-02-19T03:14:30.273Z,2.92
2017-02-19T03:15:35.332Z,2.95
2017-02-19T03:16:40.465Z,2.88
2017-02-19T03:17:46.672Z,2.85
2017-02-19T03:18:50.716Z,2.94
2017-02-19T03:19:56.822Z,2.92
2017-02-19T03:21:02.908Z,2.95
2017-02-19T03:22:08.038Z,3.05
2017-02-19T03:23:14.141Z,3.1
2017-02-19T03:24:19.265Z,3.06
2017-02-19T03:25:24.397Z,3.1
2017-02-19T03:26:30.592Z,3.05
2017-02-19T03:27:35.624Z,3.12
2017-02-19T03:28:41.738Z,3.09
2017-02-19T03:29:47.827Z,3.1
2017-02-19T03:30:51.995Z,3.12
2017-02-19T03:31:57.123Z,3.09
2017-02-19T03:33:03.233Z,3.07
2017-02-19T03:34:06.419Z,3.12
2017-02-19T03:35:12.621Z,3.15
2017-02-19T03:36:18.717Z,3.18
2017-02-19T03:37:22.871Z,3.23
2017-02-19T03:38:28.962Z,3.2
2017-02-19T03:39:34.057Z,3.27
2017-02-19T03:40:39.193Z,3.24
2017-02-19T03:41:45.294Z,3.2
2017-02-19T03:42:50.413Z,3.28
2017-02-19T03:43:55.544Z,3.18
2017-02-19T03:45:00.661Z,3.21
2017-02-19T03:46:04.818Z,3.24
2017-02-19T03:47:08.972Z,3.25
2017-02-19T03:48:15.080Z,3.23
2017-02-19T03:49:21.176Z,3.27
2017-02-19T03:50:26.305Z,3.25
2017-02-19T03:51:28.523Z,3.25
2017-02-19T03:52:33.682Z,3.3
2017-02-19T03:53:36.938Z,3.28
2017-02-19T03:54:42.032Z,3.27
2017-02-19T03:55:46.156Z,3.24
2017-02-19T03:56:52.261Z,3.25
2017-02-19T03:57:57.459Z,3.28
2017-02-19T03:59:02.578Z,3.23
2017-02-19T04:00:08.661Z,3.28
2017-02-19T04:01:14.778Z,3.25
2017-02-19T04:02:20.875Z,3.27
2017-02-19T04:03:26.983Z,3.21
2017-02-19T04:04:33.055Z,3.21
2017-02-19T04:05:38.195Z,3.2
2017-02-19T04:06:44.272Z,3.15
2017-02-19T04:07:50.374Z,3.23
2017-02-19T04:08:55.497Z,3.2
2017-02-19T04:10:00.622Z,3.18
2017-02-19T04:11:05.761Z,3.1
2017-02-19T04:12:10.910Z,3.1
2017-02-19T04:13:16.010Z,3.09
2017-02-19T04:14:20.170Z,3.07
2017-02-19T04:15:26.254Z,3.1
2017-02-19T04:16:31.381Z,3.1
2017-02-19T04:17:35.614Z,3.02
2017-02-19T04:18:41.717Z,2.95
2017-02-19T04:19:46.844Z,2.97
2017-02-19T04:20:51.944Z,3.03
2017-02-19T04:21:57.100Z,2.97
2017-02-19T04:23:03.184Z,2.87
2017-02-19T04:24:09.281Z,2.89
2017-02-19T04:25:15.370Z,2.88
2017-02-19T04:26:20.497Z,2.94
2017-02-19T04:27:26.586Z,2.85
2017-02-19T04:28:32.745Z,2.92
2017-02-19T04:29:38.832Z,2.92
2017-02-19T04:30:43.955Z,2.94
2017-02-19T04:31:50.048Z,2.88
2017-02-19T04:32:56.127Z,2.88
2017-02-19T04:34:01.222Z,2.88
2017-02-19T04:35:05.355Z,2.97
2017-02-19T04:36:10.474Z,2.94
2017-02-19T04:37:16.604Z,2.94
2017-02-19T04:38:22.670Z,2.84
2017-02-19T04:39:27.791Z,2.92
2017-02-19T04:40:33.876Z,2.94
2017-02-19T04:41:38.033Z,2.92
2017-02-19T04:42:44.118Z,2.89
2017-02-19T04:43:50.209Z,2.92
2017-02-19T04:44:56.293Z,2.94
2017-02-19T04:46:01.426Z,2.89
2017-02-19T04:47:05.591Z,2.89
2017-02-19T04:48:11.760Z,2.88
2017-02-19T04:49:17.832Z,2.94
2017-02-19T04:50:23.925Z,2.97
2017-02-19T04:51:30.033Z,2.92
2017-02-19T04:52:34.234Z,2.97
2017-02-19T04:53:39.348Z,2.95
2017-02-19T04:54:45.430Z,2.88
2017-02-19T04:55:50.555Z,2.94
2017-02-19T04:56:56.645Z,2.89
2017-02-19T04:58:02.743Z,2.91
2017-02-19T04:59:08.827Z,2.82
2017-02-19T05:00:13.954Z,2.97
2017-02-19T05:01:20.052Z,2.91
2017-02-19T05:02:26.140Z,2.91
2017-02-19T05:03:30.264Z,2.92
2017-02-19T05:04:36.357Z,2.94
2017-02-19T05:05:41.472Z,2.91
2017-02-19T05:06:47.573Z,2.94
2017-02-19T05:07:52.740Z,2.92
2017-02-19T05:08:58.826Z,2.97
2017-02-19T05:10:03.943Z,2.95
2017-02-19T05:11:10.033Z,2.98
2017-02-19T05:12:15.139Z,3.06
2017-02-19T05:13:20.279Z,2.95
2017-02-19T05:14:24.445Z,3.03
2017-02-19T05:15:29.569Z,3.06
2017-02-19T05:16:34.709Z,3.02
2017-02-19T05:17:39.798Z,3.03
2017-02-19T05:18:44.927Z,3.02
2017-02-19T05:19:51.025Z,2.95
2017-02-19T05:20:56.121Z,2.92
2017-02-19T05:22:02.228Z,3.09
2017-02-19T05:23:08.310Z,3.03
2017-02-19T05:24:12.477Z,3.03
2017-02-19T05:25:17.640Z,3.07
2017-02-19T05:26:22.765Z,3.13
2017-02-19T05:27:27.884Z,3.13
2017-02-19T05:28:33.030Z,3.16
2017-02-19T05:29:38.132Z,3.2
2017-02-19T05:30:44.233Z,3.24
2017-02-19T05:31:50.337Z,3.28
2017-02-19T05:32:56.433Z,3.34
2017-02-19T05:34:01.555Z,3.27
2017-02-19T05:35:06.675Z,3.36
2017-02-19T05:36:12.768Z,3.4
2017-02-19T05:37:18.870Z,3.4
2017-02-19T05:38:24.021Z,3.3
2017-02-19T05:39:30.100Z,3.33
2017-02-19T05:40:35.195Z,3.3
2017-02-19T05:41:41.283Z,3.33
2017-02-19T05:42:47.404Z,3.43
2017-02-19T05:43:52.500Z,3.43
2017-02-19T05:44:57.625Z,3.43
2017-02-19T05:46:02.745Z,3.47
2017-02-19T05:47:08.842Z,3.42
2017-02-19T05:48:14.933Z,3.46
2017-02-19T05:49:20.067Z,3.43
2017-02-19T05:50:25.189Z,3.39
2017-02-19T05:51:31.295Z,3.34
2017-02-19T05:52:37.385Z,3.5
2017-02-19T05:53:43.479Z,3.44
2017-02-19T05:54:49.568Z,3.52
2017-02-19T05:55:55.664Z,3.53
2017-02-19T05:57:00.784Z,3.53
2017-02-19T05:58:05.879Z,3.46
2017-02-19T05:59:10.978Z,3.47
2017-02-19T06:00:17.129Z,3.46
2017-02-19T06:01:22.260Z,3.53
2017-02-19T06:02:28.351Z,3.61
2017-02-19T06:03:34.444Z,3.58
2017-02-19T06:04:39.535Z,3.6
2017-02-19T06:05:44.662Z,3.64
2017-02-19T06:06:49.804Z,3.68
2017-02-19T06:07:55.862Z,3.65
2017-02-19T06:09:00.019Z,3.67
2017-02-19T06:10:06.168Z,3.65
2017-02-19T06:11:12.263Z,3.72
2017-02-19T06:12:17.389Z,3.75
2017-02-19T06:13:23.500Z,3.71
2017-02-19T06:14:29.584Z,3.72
2017-02-19T06:15:35.781Z,3.72
2017-02-19T06:16:39.941Z,3.78
2017-02-19T06:17:45.065Z,3.79
2017-02-19T06:18:51.157Z,3.82
2017-02-19T06:19:57.260Z,3.82
2017-02-19T06:21:03.357Z,3.8
2017-02-19T06:22:08.488Z,3.85
2017-02-19T06:23:14.593Z,3.89
2017-02-19T06:24:20.693Z,3.79
2017-02-19T06:25:26.764Z,3.82
2017-02-19T06:26:32.863Z,3.88
2017-02-19T06:27:38.966Z,3.82
2017-02-19T06:28:44.082Z,3.76
2017-02-19T06:29:49.207Z,3.83
2017-02-19T06:30:54.331Z,3.92
2017-02-19T06:32:00.424Z,3.82
2017-02-19T06:33:06.539Z,3.85
2017-02-19T06:34:12.606Z,3.79
2017-02-19T06:35:16.767Z,3.86
2017-02-19T06:36:20.917Z,3.92
2017-02-19T06:37:27.024Z,3.89
2017-02-19T06:38:33.106Z,3.83
2017-02-19T06:39:39.216Z,3.85
2017-02-19T06:40:45.309Z,3.92
2017-02-19T06:41:51.404Z,3.83
2017-02-19T06:42:57.513Z,3.89
2017-02-19T06:44:03.689Z,3.9
2017-02-19T06:45:09.778Z,3.92
2017-02-19T06:46:13.921Z,3.88
2017-02-19T06:47:20.020Z,3.97
2017-02-19T06:48:26.106Z,3.96
2017-02-19T06:49:30.271Z,3.92
2017-02-19T06:50:36.360Z,3.83
2017-02-19T06:51:42.458Z,3.97
2017-02-19T06:52:47.583Z,4
2017-02-19T06:53:53.677Z,3.97
2017-02-19T06:54:57.852Z,3.97
2017-02-19T06:56:03.916Z,3.97
2017-02-19T06:57:09.046Z,4.07
2017-02-19T06:58:15.129Z,4.07
2017-02-19T06:59:20.231Z,4.1
2017-02-19T07:00:26.381Z,4.07
2017-02-19T07:01:32.476Z,4.08
2017-02-19T07:02:38.577Z,4.06
2017-02-19T07:03:44.667Z,4.15
2017-02-19T07:04:50.758Z,4.22
2017-02-19T07:05:56.898Z,4.22
2017-02-19T07:07:02.991Z,4.08
2017-02-19T07:08:09.087Z,4.24
2017-02-19T07:09:15.171Z,4.18
2017-02-19T07:10:21.294Z,4.15
2017-02-19T07:11:26.384Z,4.16
2017-02-19T07:12:32.500Z,4.15
2017-02-19T07:13:38.565Z,4.16
2017-02-19T07:14:42.728Z,4.24
2017-02-19T07:15:47.864Z,4.16
2017-02-19T07:16:53.964Z,4.22
2017-02-19T07:18:00.066Z,4.28
2017-02-19T07:19:06.153Z,4.32
2017-02-19T07:20:12.252Z,4.43
2017-02-19T07:21:18.346Z,4.46
2017-02-19T07:22:24.444Z,4.4
2017-02-19T07:23:30.534Z,4.42
2017-02-19T07:24:36.617Z,4.39
2017-02-19T07:25:42.708Z,4.55
2017-02-19T07:26:48.807Z,4.55
2017-02-19T07:27:53.018Z,4.54
2017-02-19T07:28:58.125Z,4.55
2017-02-19T07:30:04.224Z,4.64
2017-02-19T07:31:10.339Z,4.55
2017-02-19T07:32:16.411Z,4.7
2017-02-19T07:33:21.543Z,4.73
2017-02-19T07:34:26.695Z,4.75
2017-02-19T07:35:32.811Z,4.77
2017-02-19T07:36:38.899Z,4.76
2017-02-19T07:37:45.005Z,4.75
2017-02-19T07:38:50.130Z,4.83
2017-02-19T07:39:56.228Z,4.88
2017-02-19T07:41:02.337Z,4.94
2017-02-19T07:42:07.425Z,5.02
2017-02-19T07:43:12.551Z,5.07
2017-02-19T07:44:18.645Z,5.05
2017-02-19T07:45:24.745Z,5.09
2017-02-19T07:46:30.863Z,5.14
2017-02-19T07:47:36.937Z,5.16
2017-02-19T07:48:43.031Z,5.13
2017-02-19T07:49:49.141Z,5.09
2017-02-19T07:50:55.231Z,5.19
2017-02-19T07:51:58.419Z,5.23
2017-02-19T07:53:04.527Z,5.22
2017-02-19T07:54:10.637Z,5.23
2017-02-19T07:55:16.732Z,5.27
2017-02-19T07:56:21.864Z,5.3
2017-02-19T07:57:26.965Z,5.3
2017-02-19T07:58:33.056Z,5.37
2017-02-19T07:59:38.171Z,5.35
2017-02-19T08:00:43.321Z,5.37
2017-02-19T08:01:48.433Z,5.43
2017-02-19T08:02:53.562Z,5.45
2017-02-19T08:03:59.659Z,5.4
2017-02-19T08:05:05.759Z,5.5
2017-02-19T08:06:11.854Z,5.5
2017-02-19T08:07:17.944Z,5.52
2017-02-19T08:08:22.094Z,5.53
2017-02-19T08:09:28.193Z,5.52
2017-02-19T08:10:33.327Z,5.57
2017-02-19T08:11:39.425Z,5.59
2017-02-19T08:12:45.552Z,5.59
2017-02-19T08:13:51.632Z,5.6
2017-02-19T08:14:57.745Z,5.63
2017-02-19T08:16:03.839Z,5.6
2017-02-19T08:17:08.946Z,5.64
2017-02-19T08:18:15.037Z,5.5
2017-02-19T08:19:20.171Z,5.6
2017-02-19T08:20:26.258Z,5.63
2017-02-19T08:21:32.361Z,5.59
2017-02-19T08:22:38.449Z,5.6
2017-02-19T08:23:44.593Z,5.67
2017-02-19T08:24:50.691Z,5.59
2017-02-19T08:25:56.781Z,5.6
2017-02-19T08:27:02.868Z,5.59
2017-02-19T08:28:08.982Z,5.57
2017-02-19T08:29:14.082Z,5.57
2017-02-19T08:30:19.205Z,5.59
2017-02-19T08:31:23.331Z,5.55
2017-02-19T08:32:28.454Z,5.7
2017-02-19T08:33:33.594Z,5.77
2017-02-19T08:34:39.692Z,5.74
2017-02-19T08:35:45.796Z,5.7
2017-02-19T08:36:51.908Z,5.74
2017-02-19T08:37:58.008Z,5.77
2017-02-19T08:39:04.102Z,5.83
2017-02-19T08:40:09.211Z,5.85
2017-02-19T08:41:14.341Z,5.85
2017-02-19T08:42:19.480Z,5.89
2017-02-19T08:43:25.576Z,5.96
2017-02-19T08:44:31.674Z,5.95
2017-02-19T08:45:36.810Z,5.95
2017-02-19T08:46:42.913Z,6.04
2017-02-19T08:47:49.012Z,6.07
2017-02-19T08:48:55.102Z,6.07
2017-02-19T08:50:01.199Z,6.04
2017-02-19T08:51:07.297Z,6.07
2017-02-19T08:52:13.389Z,6.07
2017-02-19T08:53:19.488Z,6.16
2017-02-19T08:54:25.581Z,6.07
2017-02-19T08:55:30.713Z,6.19
2017-02-19T08:56:35.841Z,6.18
2017-02-19T08:57:41.966Z,6.22
2017-02-19T08:58:47.184Z,6.22
2017-02-19T08:59:52.227Z,6.3
2017-02-19T09:00:58.323Z,6.21
2017-02-19T09:02:03.414Z,6.18
2017-02-19T09:03:08.529Z,6.13
2017-02-19T09:04:13.625Z,6.22
2017-02-19T09:05:19.759Z,6.26
2017-02-19T09:06:25.861Z,6.21
2017-02-19T09:07:31.917Z,6.22
2017-02-19T09:08:37.081Z,6.26
2017-02-19T09:09:43.167Z,6.28
2017-02-19T09:10:49.275Z,6.3
2017-02-19T09:11:54.403Z,6.29
2017-02-19T09:13:00.503Z,6.25
2017-02-19T09:14:06.611Z,6.28
2017-02-19T09:15:12.701Z,6.26
2017-02-19T09:16:17.805Z,6.33
2017-02-19T09:17:23.903Z,6.41
2017-02-19T09:18:30.006Z,6.44
2017-02-19T09:19:35.132Z,6.41
2017-02-19T09:20:39.262Z,6.44
2017-02-19T09:21:45.415Z,6.5
2017-02-19T09:22:50.588Z,6.58
2017-02-19T09:23:56.664Z,6.56
2017-02-19T09:25:02.772Z,6.56
2017-02-19T09:26:07.986Z,6.59
2017-02-19T09:27:12.141Z,6.58
2017-02-19T09:28:18.244Z,6.48
2017-02-19T09:29:24.351Z,6.65
2017-02-19T09:30:30.454Z,6.66
2017-02-19T09:31:36.556Z,6.72
2017-02-19T09:32:41.678Z,6.8
2017-02-19T09:33:47.830Z,6.77
2017-02-19T09:34:53.933Z,6.84
2017-02-19T09:36:00.023Z,6.8
2017-02-19T09:37:06.116Z,6.69
2017-02-19T09:38:12.212Z,6.79
2017-02-19T09:39:18.304Z,6.84
2017-02-19T09:40:24.404Z,6.86
2017-02-19T09:41:30.541Z,6.81
2017-02-19T09:42:35.669Z,6.87
2017-02-19T09:43:41.784Z,6.91
2017-02-19T09:44:47.859Z,6.86
2017-02-19T09:45:52.992Z,6.9
2017-02-19T09:46:58.103Z,6.86
2017-02-19T09:48:04.236Z,6.83
2017-02-19T09:49:10.334Z,6.9
2017-02-19T09:50:15.453Z,6.99
2017-02-19T09:51:20.581Z,6.99
2017-02-19T09:52:24.734Z,6.91
2017-02-19T09:53:30.834Z,7.02
2017-02-19T09:54:35.974Z,7.08
2017-02-19T09:55:42.219Z,7.08
2017-02-19T09:56:48.339Z,7.24
2017-02-19T09:57:54.440Z,7.29
2017-02-19T09:59:00.547Z,7.35
2017-02-19T10:00:04.690Z,7.35
2017-02-19T10:01:10.785Z,7.34
2017-02-19T10:02:16.887Z,7.38
2017-02-19T10:03:22.990Z,7.35
2017-02-19T10:04:29.082Z,7.22
2017-02-19T10:05:33.230Z,7.16
2017-02-19T10:06:38.351Z,7.15
2017-02-19T10:07:44.452Z,7.12
2017-02-19T10:08:50.552Z,7.15
2017-02-19T10:09:55.679Z,7.2
2017-02-19T10:11:00.809Z,7.22
2017-02-19T10:12:06.932Z,7.27
2017-02-19T10:13:13.024Z,7.32
2017-02-19T10:14:15.223Z,7.37
2017-02-19T10:15:20.344Z,7.35
2017-02-19T10:16:26.440Z,7.31
2017-02-19T10:17:32.525Z,7.32
2017-02-19T10:18:37.665Z,7.35
2017-02-19T10:19:43.763Z,7.35
2017-02-19T10:20:49.857Z,7.4
2017-02-19T10:21:55.968Z,7.53
2017-02-19T10:23:02.071Z,7.56
2017-02-19T10:24:08.156Z,7.69
2017-02-19T10:25:14.245Z,7.72
2017-02-19T10:26:20.349Z,7.84
2017-02-19T10:27:26.464Z,8.02
2017-02-19T10:28:31.572Z,8.12
2017-02-19T10:29:37.672Z,8.04
2017-02-19T10:30:43.764Z,7.89
2017-02-19T10:31:48.896Z,7.94
2017-02-19T10:32:53.039Z,7.99
2017-02-19T10:33:58.172Z,7.9
2017-02-19T10:35:04.306Z,7.79
2017-02-19T10:36:09.461Z,7.84
2017-02-19T10:37:15.558Z,7.82
2017-02-19T10:38:21.660Z,7.85
2017-02-19T10:39:27.773Z,7.87
2017-02-19T10:40:33.957Z,7.89
2017-02-19T10:41:40.065Z,7.81
2017-02-19T10:42:44.215Z,7.81
2017-02-19T10:43:50.325Z,7.9
2017-02-19T10:44:56.421Z,7.85
2017-02-19T10:46:02.536Z,7.84
2017-02-19T10:47:08.659Z,7.82
2017-02-19T10:48:14.729Z,7.85
2017-02-19T10:49:20.835Z,7.84
2017-02-19T10:50:26.939Z,7.78
2017-02-19T10:51:33.056Z,7.82
2017-02-19T10:52:39.148Z,7.79
2017-02-19T10:53:45.257Z,7.77
2017-02-19T10:54:51.375Z,7.9
2017-02-19T10:55:56.517Z,7.79
2017-02-19T10:57:02.751Z,7.81
2017-02-19T10:58:07.894Z,7.74
2017-02-19T10:59:13.022Z,7.67
2017-02-19T11:00:19.130Z,7.77
2017-02-19T11:01:25.232Z,7.75
2017-02-19T11:02:31.336Z,7.81
2017-02-19T11:03:37.436Z,7.75
2017-02-19T11:04:41.579Z,7.75
2017-02-19T11:05:47.679Z,7.74
2017-02-19T11:06:53.800Z,7.74
2017-02-19T11:07:59.873Z,7.66
2017-02-19T11:09:05.973Z,7.58
2017-02-19T11:10:11.109Z,7.53
2017-02-19T11:11:17.224Z,7.56
2017-02-19T11:12:23.338Z,7.52
2017-02-19T11:13:29.447Z,7.4
2017-02-19T11:14:35.567Z,7.4
2017-02-19T11:15:41.668Z,7.38
2017-02-19T11:16:47.772Z,7.37
2017-02-19T11:17:52.905Z,7.35
2017-02-19T11:18:59.003Z,7.35
2017-02-19T11:20:05.233Z,7.34
2017-02-19T11:21:10.377Z,7.32
2017-02-19T11:22:16.506Z,7.4
2017-02-19T11:23:21.620Z,7.31
2017-02-19T11:24:27.718Z,7.22
2017-02-19T11:25:33.828Z,7.2
2017-02-19T11:26:39.927Z,7.22
2017-02-19T11:27:46.060Z,7.2
2017-02-19T11:28:52.154Z,7.17
2017-02-19T11:29:58.251Z,7.09
2017-02-19T11:31:03.355Z,7.12
2017-02-19T11:32:09.443Z,7.16
2017-02-19T11:33:14.566Z,7.15
2017-02-19T11:34:20.674Z,7.12
2017-02-19T11:35:26.791Z,7.04
2017-02-19T11:36:32.867Z,7.05
2017-02-19T11:37:38.964Z,6.95
2017-02-19T11:38:45.059Z,6.95
2017-02-19T11:39:51.148Z,7.08
2017-02-19T11:40:56.248Z,6.95
2017-02-19T11:42:01.377Z,6.97
2017-02-19T11:43:07.469Z,6.97
2017-02-19T11:44:13.573Z,6.9
2017-02-19T11:45:19.672Z,6.91
2017-02-19T11:46:25.761Z,6.84
2017-02-19T11:47:30.896Z,6.89
2017-02-19T11:48:37.020Z,6.84
2017-02-19T11:49:43.101Z,6.84
2017-02-19T11:50:49.202Z,6.84
2017-02-19T11:51:55.309Z,6.98
2017-02-19T11:53:01.400Z,6.86
2017-02-19T11:54:06.528Z,6.95
2017-02-19T11:55:12.618Z,6.84
2017-02-19T11:56:18.713Z,6.97
2017-02-19T11:57:24.814Z,6.87
2017-02-19T11:58:30.908Z,6.9
2017-02-19T11:59:37.022Z,6.87
2017-02-19T12:00:43.117Z,6.87
2017-02-19T12:01:49.226Z,6.91
2017-02-19T12:02:55.327Z,6.83
2017-02-19T12:04:01.416Z,6.86
2017-02-19T12:05:07.555Z,6.86
2017-02-19T12:06:12.852Z,6.83
2017-02-19T12:07:17.922Z,6.76
2017-02-19T12:08:24.012Z,6.81
2017-02-19T12:09:30.109Z,6.84
2017-02-19T12:10:35.271Z,6.71
2017-02-19T12:11:41.349Z,6.77
2017-02-19T12:12:47.441Z,6.79
2017-02-19T12:13:53.549Z,6.8
2017-02-19T12:14:59.677Z,6.76
2017-02-19T12:16:05.802Z,6.69
2017-02-19T12:17:11.875Z,6.68
2017-02-19T12:18:17.977Z,6.68
2017-02-19T12:19:24.091Z,6.71
2017-02-19T12:20:30.185Z,6.66
2017-02-19T12:21:35.315Z,6.66
2017-02-19T12:22:41.422Z,6.65
2017-02-19T12:23:47.522Z,6.59
2017-02-19T12:24:53.620Z,6.56
2017-02-19T12:25:59.723Z,6.72
2017-02-19T12:27:05.811Z,6.68
2017-02-19T12:28:10.940Z,6.63
2017-02-19T12:29:17.037Z,6.76
2017-02-19T12:30:22.196Z,6.72
2017-02-19T12:31:28.285Z,6.63
2017-02-19T12:32:34.380Z,6.68
2017-02-19T12:33:40.476Z,6.62
2017-02-19T12:34:46.572Z,6.68
2017-02-19T12:35:52.670Z,6.72
2017-02-19T12:36:58.781Z,6.73
2017-02-19T12:38:05.007Z,6.69
2017-02-19T12:39:11.095Z,6.69
2017-02-19T12:40:17.199Z,6.72
2017-02-19T12:41:23.296Z,6.68
2017-02-19T12:42:29.442Z,6.58
2017-02-19T12:43:35.535Z,6.62
2017-02-19T12:44:40.724Z,6.61
2017-02-19T12:45:46.834Z,6.58
2017-02-19T12:46:51.951Z,6.47
2017-02-19T12:47:57.103Z,6.5
2017-02-19T12:49:03.198Z,6.56
2017-02-19T12:50:09.307Z,6.59
2017-02-19T12:51:15.407Z,6.58
2017-02-19T12:52:21.610Z,6.43
2017-02-19T12:53:27.726Z,6.5
2017-02-19T12:54:33.808Z,6.44
2017-02-19T12:55:39.901Z,6.44
2017-02-19T12:56:46.026Z,6.43
2017-02-19T12:57:52.124Z,6.38
2017-02-19T12:58:58.225Z,6.4
2017-02-19T13:00:04.329Z,6.32
2017-02-19T13:01:09.501Z,6.35
2017-02-19T13:02:15.645Z,6.29
2017-02-19T13:03:21.745Z,6.32
2017-02-19T13:04:27.857Z,6.41
2017-02-19T13:05:32.997Z,6.32
2017-02-19T13:06:38.135Z,6.32
2017-02-19T13:07:44.234Z,6.41
2017-02-19T13:08:49.364Z,6.36
2017-02-19T13:09:55.460Z,6.41
2017-02-19T13:10:59.658Z,6.35
2017-02-19T13:12:05.749Z,6.36
2017-02-19T13:13:11.869Z,6.41
2017-02-19T13:14:17.977Z,6.33
2017-02-19T13:15:24.071Z,6.48
2017-02-19T13:16:30.179Z,6.48
2017-02-19T13:17:36.272Z,6.44
2017-02-19T13:18:42.388Z,6.46
2017-02-19T13:19:48.465Z,6.5
2017-02-19T13:20:54.577Z,6.48
2017-02-19T13:22:00.672Z,6.5
2017-02-19T13:23:05.821Z,6.56
2017-02-19T13:24:11.923Z,6.46
2017-02-19T13:25:18.029Z,6.48
2017-02-19T13:26:24.149Z,6.48
2017-02-19T13:27:30.247Z,6.61
2017-02-19T13:28:35.385Z,6.54
2017-02-19T13:29:41.489Z,6.58
2017-02-19T13:30:47.590Z,6.62
2017-02-19T13:31:52.714Z,6.66
2017-02-19T13:32:58.805Z,6.68
2017-02-19T13:34:03.914Z,6.69
2017-02-19T13:35:09.054Z,6.72
2017-02-19T13:36:14.186Z,6.66
2017-02-19T13:37:19.313Z,6.66
2017-02-19T13:38:25.434Z,6.58
2017-02-19T13:39:31.521Z,6.65
2017-02-19T13:40:36.644Z,6.62
2017-02-19T13:41:41.796Z,6.72
2017-02-19T13:42:48.003Z,6.69
2017-02-19T13:43:54.109Z,6.8
2017-02-19T13:45:00.234Z,6.66
2017-02-19T13:46:06.331Z,6.68
2017-02-19T13:47:10.505Z,6.62
2017-02-19T13:48:16.599Z,6.68
2017-02-19T13:49:22.716Z,6.72
2017-02-19T13:50:28.820Z,6.65
2017-02-19T13:51:34.916Z,6.62
2017-02-19T13:52:40.051Z,6.63
2017-02-19T13:53:46.144Z,6.69
2017-02-19T13:54:52.256Z,6.69
2017-02-19T13:55:56.461Z,6.76
2017-02-19T13:57:02.543Z,6.83
2017-02-19T13:58:08.655Z,6.72
2017-02-19T13:59:14.755Z,6.72
2017-02-19T14:00:20.886Z,6.79
2017-02-19T14:01:27.024Z,6.73
2017-02-19T14:02:32.137Z,6.84
2017-02-19T14:03:37.267Z,6.81
2017-02-19T14:04:41.431Z,6.83
2017-02-19T14:05:47.544Z,6.97
2017-02-19T14:06:53.654Z,6.9
2017-02-19T14:07:58.794Z,6.95
2017-02-19T14:09:04.886Z,6.91
2017-02-19T14:10:10.995Z,6.97
2017-02-19T14:11:17.098Z,6.98
2017-02-19T14:12:23.193Z,6.95
2017-02-19T14:13:29.298Z,6.94
2017-02-19T14:14:35.400Z,6.94
2017-02-19T14:15:41.504Z,6.94
2017-02-19T14:16:45.659Z,6.87
2017-02-19T14:17:51.745Z,6.86
2017-02-19T14:18:57.854Z,6.83
2017-02-19T14:20:03.976Z,6.81
2017-02-19T14:21:10.058Z,6.84
2017-02-19T14:22:16.154Z,6.87
2017-02-19T14:23:21.281Z,6.89
2017-02-19T14:24:27.384Z,6.81
2017-02-19T14:25:32.524Z,6.81
2017-02-19T14:26:38.626Z,6.73
2017-02-19T14:27:43.763Z,6.71
2017-02-19T14:28:49.869Z,6.71
2017-02-19T14:29:55.007Z,6.72
2017-02-19T14:31:00.114Z,6.76
2017-02-19T14:32:05.227Z,6.68
2017-02-19T14:33:11.421Z,6.71
2017-02-19T14:34:17.520Z,6.8
2017-02-19T14:35:23.636Z,6.68
2017-02-19T14:36:29.740Z,6.79